Time;durP1;ratioP1;P1;durP2;ratioP2;P2;SDS_P1;SDS_P2;PMS_P1;PMS_P2;Temp;Humidity;BMP_temperature;BMP_pressure;BME280_temperature;BME280_humidity;BME280_pressure;Samples;Min_cycle;Max_cycle;Signal;HPM_P1;HPM_P2
2022/08/29 00:01:27;;;;;;;12.73;7.80;;;;;;;-141.28;100.00;50355.72;5086511;28;20192;-75
2022/08/29 00:03:56;;;;;;;9.57;7.47;;;;;;;-141.28;100.00;50391.06;5073412;28;20207;-76
2022/08/29 00:06:24;;;;;;;14.43;8.00;;;;;;;-141.28;100.00;50338.06;5073785;28;20596;-75
2022/08/29 00:08:52;;;;;;;13.83;8.20;;;;;;;-141.28;100.00;50338.06;5089908;28;20250;-76
2022/08/29 00:11:19;;;;;;;10.37;7.50;;;;;;;-141.28;100.00;50342.00;5092783;28;20207;-77
2022/08/29 00:13:49;;;;;;;14.73;7.77;;;;;;;-141.28;100.00;50330.22;5074739;28;20575;-75
2022/08/29 00:16:18;;;;;;;11.67;7.53;;;;;;;-141.28;100.00;50365.53;5073306;28;20239;-75
2022/08/29 00:18:47;;;;;;;13.20;7.50;;;;;;;-141.28;100.00;50410.69;5091708;28;20203;-74
2022/08/29 00:21:15;;;;;;;15.50;8.13;;;;;;;-141.28;100.00;50432.28;5103704;28;20203;-76
2022/08/29 00:23:44;;;;;;;10.17;8.00;;;;;;;-141.28;100.00;50396.94;5077210;28;20203;-77
2022/08/29 00:26:12;;;;;;;12.03;8.70;;;;;;;-141.28;100.00;50396.94;5088140;28;20191;-76
2022/08/29 00:28:40;;;;;;;15.23;8.30;;;;;;;-141.28;100.00;50375.34;5078272;28;20224;-75
2022/08/29 00:31:09;;;;;;;15.17;8.90;;;;;;;-141.28;100.00;50416.56;5088833;28;20214;-77
2022/08/29 00:33:37;;;;;;;15.43;9.13;;;;;;;-141.28;100.00;50430.31;5102630;28;20199;-76
2022/08/29 00:36:05;;;;;;;14.87;8.67;;;;;;;-141.28;100.00;50373.38;5084994;28;20195;-76
2022/08/29 00:38:31;;;;;;;12.33;8.23;;;;;;;-141.28;100.00;50416.56;5079371;28;20226;-75
2022/08/29 00:41:00;;;;;;;13.87;8.73;;;;;;;-141.28;100.00;50416.56;5098347;28;20332;-75
2022/08/29 00:43:31;;;;;;;15.20;8.73;;;;;;;-141.28;100.00;50463.69;5099008;28;20198;-76
2022/08/29 00:46:17;;;;;;;13.03;9.23;;;;;;;-141.28;100.00;50481.34;5100741;28;20209;-75
2022/08/29 00:48:48;;;;;;;13.87;9.33;;;;;;;-141.28;100.00;50495.09;5075736;28;20285;-78
2022/08/29 00:51:17;;;;;;;17.27;10.03;;;;;;;-141.28;100.00;50487.25;5089891;28;20203;-75
2022/08/29 00:53:48;;;;;;;14.63;9.67;;;;;;;-141.28;100.00;50542.19;5075590;28;20280;-75
2022/08/29 00:56:16;;;;;;;13.47;8.57;;;;;;;-141.28;100.00;50514.72;5103034;28;20649;-74
2022/08/29 00:58:48;;;;;;;15.23;9.03;;;;;;;-141.28;100.00;50526.50;5088500;28;20225;-75
2022/08/29 01:01:17;;;;;;;11.33;8.67;;;;;;;-141.28;100.00;50502.94;5072580;28;20228;-76
2022/08/29 01:03:45;;;;;;;11.93;8.40;;;;;;;-141.28;100.00;50510.78;5080423;28;20200;-75
2022/08/29 01:06:13;;;;;;;13.07;8.53;;;;;;;-141.28;100.00;50538.28;5072345;28;20207;-76
2022/08/29 01:08:41;;;;;;;11.90;7.97;;;;;;;-141.28;100.00;50561.81;5085383;28;20273;-76
2022/08/29 01:13:55;;;;;;;17.73;8.90;;;;;;;-141.28;100.00;50475.47;5094953;28;20206;-74
2022/08/29 01:16:26;;;;;;;15.13;8.90;;;;;;;-141.28;100.00;50506.88;5084420;28;20223;-76
2022/08/29 01:18:58;;;;;;;10.67;8.30;;;;;;;-141.28;100.00;50536.31;5081356;28;20290;-76
2022/08/29 01:21:35;;;;;;;16.27;8.27;;;;;;;-141.28;100.00;50502.94;5080473;28;20207;-76
2022/08/29 01:24:10;;;;;;;14.53;8.67;;;;;;;-141.28;100.00;50528.47;5092087;28;20195;-76
2022/08/29 01:26:39;;;;;;;17.37;8.13;;;;;;;-141.28;100.00;50548.09;5112347;28;20201;-76
2022/08/29 01:29:07;;;;;;;18.17;9.60;;;;;;;-141.28;100.00;50534.34;5094314;28;20677;-75
2022/08/29 01:31:43;;;;;;;13.77;9.03;;;;;;;-141.28;100.00;50514.72;5071982;28;20192;-76
2022/08/29 01:34:12;;;;;;;14.90;9.00;;;;;;;-141.28;100.00;50546.13;5068538;28;20203;-74
2022/08/29 01:36:46;;;;;;;19.13;9.47;;;;;;;-141.28;100.00;50528.47;5100287;28;20191;-75
2022/08/29 01:39:14;;;;;;;17.33;9.83;;;;;;;-141.28;100.00;50546.13;5081884;28;20212;-75
2022/08/29 01:41:43;;;;;;;19.57;10.53;;;;;;;-141.28;100.00;50530.41;5081816;28;20203;-77
2022/08/29 01:44:13;;;;;;;13.97;10.23;;;;;;;-141.28;100.00;50542.19;5071565;28;20659;-77
2022/08/29 01:46:41;;;;;;;20.00;9.77;;;;;;;-141.28;100.00;50561.81;5086954;28;20203;-74
2022/08/29 01:49:11;;;;;;;13.97;10.03;;;;;;;-141.28;100.00;50573.59;5091896;28;20794;-76
2022/08/29 01:51:38;;;;;;;14.17;9.67;;;;;;;-141.28;100.00;50579.50;5101301;28;20203;-76
2022/08/29 01:54:07;;;;;;;19.30;10.33;;;;;;;-141.28;100.00;50593.22;5087652;28;20559;-74
2022/08/29 01:56:38;;;;;;;17.47;10.13;;;;;;;-141.28;100.00;50610.91;5095575;28;20191;-76
2022/08/29 01:59:09;;;;;;;18.77;10.23;;;;;;;-141.28;100.00;50648.19;5115131;28;20195;-76
2022/08/29 02:01:39;;;;;;;14.73;9.63;;;;;;;-141.28;100.00;50597.16;5103381;28;20199;-73
2022/08/29 02:04:07;;;;;;;13.23;9.60;;;;;;;-141.28;100.00;50608.94;5095225;28;20577;-75
2022/08/29 02:06:36;;;;;;;22.57;11.20;;;;;;;-141.28;100.00;50618.75;5082565;28;20196;-76
2022/08/29 02:09:05;;;;;;;14.73;10.63;;;;;;;-141.28;100.00;50659.97;5103027;28;20229;-75
2022/08/29 02:11:32;;;;;;;15.83;10.13;;;;;;;-141.28;100.00;50652.13;5101054;28;20222;-76
2022/08/29 02:13:59;;;;;;;17.77;10.00;;;;;;;-141.28;100.00;50663.91;5107141;28;20658;-75
2022/08/29 02:16:29;;;;;;;17.53;10.13;;;;;;;-141.28;100.00;50616.78;5095140;28;20232;-76
2022/08/29 02:18:57;;;;;;;14.93;11.07;;;;;;;-141.28;100.00;50665.88;5095123;28;20202;-75
2022/08/29 02:21:28;;;;;;;18.53;11.00;;;;;;;-141.28;100.00;50663.91;5095219;28;20258;-75
2022/08/29 02:23:57;;;;;;;16.13;11.23;;;;;;;-141.28;100.00;50683.53;5105791;28;20258;-75
2022/08/29 02:26:24;;;;;;;21.00;10.53;;;;;;;-141.28;100.00;50663.91;5098025;28;20199;-76
2022/08/29 02:28:51;;;;;;;22.07;10.73;;;;;;;-141.28;100.00;50683.53;5085774;28;20196;-75
2022/08/29 02:31:23;;;;;;;18.00;11.30;;;;;;;-141.28;100.00;50667.81;5084129;28;20641;-75
2022/08/29 02:33:52;;;;;;;18.13;10.77;;;;;;;-141.28;100.00;50695.31;5110438;28;20441;-76
2022/08/29 02:36:22;;;;;;;15.60;10.27;;;;;;;-141.28;100.00;50683.53;5096642;28;20192;-75
2022/08/29 02:38:50;;;;;;;17.63;11.23;;;;;;;-141.28;100.00;50634.47;5095972;28;20223;-74
2022/08/29 02:41:20;;;;;;;16.43;10.33;;;;;;;-141.28;100.00;50683.53;5094787;28;20693;-76
2022/08/29 02:43:49;;;;;;;18.57;10.70;;;;;;;-141.28;100.00;50685.50;5094747;28;20214;-76
2022/08/29 02:46:18;;;;;;;14.37;9.90;;;;;;;-141.28;100.00;50681.56;5094954;28;20195;-76
2022/08/29 02:48:46;;;;;;;15.67;9.67;;;;;;;-141.28;100.00;50762.06;5107821;28;20198;-75
2022/08/29 02:51:22;;;;;;;15.70;9.30;;;;;;;-141.28;100.00;50746.34;5101970;28;20195;-75
2022/08/29 02:53:49;;;;;;;10.93;8.93;;;;;;;-141.28;100.00;50718.88;5080527;28;20294;-77
2022/08/29 02:56:18;;;;;;;13.53;8.67;;;;;;;-141.28;100.00;50769.91;5094915;28;20199;-75
2022/08/29 02:58:46;;;;;;;12.93;8.57;;;;;;;-141.28;100.00;50789.53;5080673;28;20570;-76
2022/08/29 03:01:14;;;;;;;17.00;9.10;;;;;;;-141.28;100.00;50779.72;5093776;28;20196;-75
2022/08/29 03:03:41;;;;;;;9.40;7.93;;;;;;;-141.28;100.00;50793.47;5093884;28;20565;-75
2022/08/29 03:06:11;;;;;;;15.93;8.77;;;;;;;-141.28;100.00;50820.94;5082713;28;20200;-76
2022/08/29 03:08:40;;;;;;;14.27;8.23;;;;;;;-141.28;100.00;50852.34;5097623;28;20273;-77
2022/08/29 03:11:08;;;;;;;17.40;9.30;;;;;;;-141.28;100.00;50836.66;5102967;28;20614;-77
2022/08/29 03:13:35;;;;;;;15.57;8.57;;;;;;;-141.28;100.00;50809.16;5089259;28;20284;-75
2022/08/29 03:16:03;;;;;;;13.60;8.83;;;;;;;-141.28;100.00;50793.47;5085380;28;20235;-77
2022/08/29 03:18:31;;;;;;;11.27;8.77;;;;;;;-141.28;100.00;50785.59;5084859;28;20533;-76
2022/08/29 03:20:58;;;;;;;13.27;8.10;;;;;;;-141.28;100.00;50789.53;5101732;28;20200;-75
2022/08/29 03:23:26;;;;;;;15.40;8.67;;;;;;;-141.28;100.00;50797.38;5097704;28;20255;-76
2022/08/29 03:25:54;;;;;;;12.83;8.20;;;;;;;-141.28;100.00;50813.09;5101483;28;20195;-74
2022/08/29 03:28:22;;;;;;;10.97;8.17;;;;;;;-141.28;100.00;50765.97;5092877;28;20577;-75
2022/08/29 03:30:49;;;;;;;18.90;9.40;;;;;;;-141.28;100.00;50789.53;5106202;28;20226;-74
2022/08/29 03:33:17;;;;;;;19.90;10.00;;;;;;;-141.28;100.00;50754.19;5093216;28;20205;-76
2022/08/29 03:35:45;;;;;;;16.83;9.63;;;;;;;-141.28;100.00;50769.91;5106071;28;20199;-77
2022/08/29 03:38:14;;;;;;;17.33;9.13;;;;;;;-141.28;100.00;50758.13;5088044;28;20214;-76
2022/08/29 03:40:43;;;;;;;13.50;8.90;;;;;;;-141.28;100.00;50773.81;5097844;28;20203;-75
2022/08/29 03:43:12;;;;;;;14.60;9.50;;;;;;;-141.28;100.00;50758.13;5104280;28;20207;-76
2022/08/29 03:45:39;;;;;;;16.77;9.03;;;;;;;-141.28;100.00;50765.97;5092084;28;20196;-74
2022/08/29 03:48:06;;;;;;;18.53;8.47;;;;;;;-141.28;100.00;50746.34;5108265;28;20560;-74
2022/08/29 03:50:35;;;;;;;14.23;9.10;;;;;;;-141.28;100.00;50828.78;5106506;28;20265;-75
2022/08/29 03:53:03;;;;;;;16.53;9.17;;;;;;;-141.28;100.00;50754.19;5082768;28;20203;-76
2022/08/29 03:55:29;;;;;;;14.33;9.30;;;;;;;-141.28;100.00;50773.81;5097283;28;20191;-76
2022/08/29 03:57:57;;;;;;;14.57;9.60;;;;;;;-141.28;100.00;50773.81;5102974;28;20654;-74
2022/08/29 04:00:26;;;;;;;16.80;9.57;;;;;;;-141.28;100.00;50762.06;5106759;28;20354;-76
2022/08/29 04:02:54;;;;;;;14.63;9.60;;;;;;;-141.28;100.00;50764.00;5102422;28;20195;-74
2022/08/29 04:05:22;;;;;;;19.73;9.30;;;;;;;-141.28;100.00;50760.09;5104898;28;20709;-75
2022/08/29 04:07:52;;;;;;;24.50;9.70;;;;;;;-141.28;100.00;50771.88;5083597;28;20192;-75
2022/08/29 04:10:22;;;;;;;20.17;10.00;;;;;;;-141.28;100.00;50758.13;5085934;28;20273;-74
2022/08/29 04:12:54;;;;;;;18.67;9.80;;;;;;;-141.28;100.00;50769.91;5092348;28;20200;-75
2022/08/29 04:15:22;;;;;;;22.70;10.50;;;;;;;-141.28;100.00;50746.34;5092874;28;20405;-76
2022/08/29 04:17:53;;;;;;;26.90;11.30;;;;;;;-141.28;100.00;50765.97;5105744;28;20195;-76
2022/08/29 04:20:22;;;;;;;27.13;10.83;;;;;;;-141.28;100.00;50754.19;5079538;28;20731;-74
2022/08/29 04:22:49;;;;;;;16.80;10.23;;;;;;;-141.28;100.00;50730.66;5089321;28;20211;-76
2022/08/29 04:25:17;;;;;;;18.30;11.30;;;;;;;-141.28;100.00;50746.34;5083536;28;20200;-75
2022/08/29 04:27:47;;;;;;;21.03;11.50;;;;;;;-141.28;100.00;50736.53;5073091;28;20199;-76
2022/08/29 04:30:20;;;;;;;37.17;12.87;;;;;;;-141.28;100.00;50740.47;5086986;28;20259;-77
2022/08/29 04:32:47;;;;;;;27.80;11.43;;;;;;;-141.28;100.00;50718.88;5079262;28;20325;-76
2022/08/29 04:35:17;;;;;;;22.67;10.93;;;;;;;-141.28;100.00;50685.50;5072943;28;20200;-76
2022/08/29 04:37:44;;;;;;;22.00;11.33;;;;;;;-141.28;100.00;50699.22;5073674;28;20223;-77
2022/08/29 04:40:14;;;;;;;27.03;11.63;;;;;;;-141.28;100.00;50728.69;5084715;28;20200;-75
2022/08/29 04:42:42;;;;;;;34.33;13.30;;;;;;;-141.28;100.00;50718.88;5055781;28;20210;-74
2022/08/29 04:45:12;;;;;;;26.03;12.80;;;;;;;-141.28;100.00;50703.16;5072586;28;20673;-77
2022/08/29 04:47:40;;;;;;;28.07;12.43;;;;;;;-141.28;100.00;50738.50;5078158;28;20208;-74
2022/08/29 04:50:10;;;;;;;25.00;10.77;;;;;;;-141.28;100.00;50685.50;5079874;28;20227;-77
2022/08/29 04:52:38;;;;;;;24.03;10.77;;;;;;;-141.28;100.00;50746.34;5088609;28;20211;-76
2022/08/29 04:55:07;;;;;;;20.27;10.20;;;;;;;-141.28;100.00;50797.38;5094064;28;20191;-75
2022/08/29 04:57:34;;;;;;;23.93;11.50;;;;;;;-141.28;100.00;50820.94;5076303;28;20208;-75
2022/08/29 05:00:03;;;;;;;37.13;11.20;;;;;;;-141.28;100.00;50801.31;5072261;28;20211;-74
2022/08/29 05:02:32;;;;;;;17.50;10.60;;;;;;;-141.28;100.00;50795.41;5073133;28;20576;-75
2022/08/29 05:05:01;;;;;;;24.07;10.40;;;;;;;-141.28;100.00;50781.69;5072323;28;20192;-76
2022/08/29 05:07:31;;;;;;;22.20;11.03;;;;;;;-141.28;100.00;50862.16;5079982;28;20205;-75
2022/08/29 05:10:04;;;;;;;25.03;11.57;;;;;;;-141.28;100.00;50791.50;5077169;28;20228;-76
2022/08/29 05:12:32;;;;;;;14.03;10.23;;;;;;;-141.28;100.00;50775.78;5072538;28;20196;-76
2022/08/29 05:15:00;;;;;;;17.50;9.93;;;;;;;-141.28;100.00;50789.53;5086264;28;22365;-74
2022/08/29 05:17:28;;;;;;;25.00;10.73;;;;;;;-141.28;100.00;50777.75;5074474;28;20200;-76
2022/08/29 05:19:55;;;;;;;22.53;9.90;;;;;;;-141.28;100.00;50754.19;5074752;28;20196;-75
2022/08/29 05:22:24;;;;;;;16.13;9.63;;;;;;;-141.28;100.00;50752.22;5074392;28;20200;-76
2022/08/29 05:24:52;;;;;;;21.00;10.17;;;;;;;-141.28;100.00;50750.28;5080422;28;20261;-75
2022/08/29 05:27:22;;;;;;;20.93;9.83;;;;;;;-141.28;100.00;50691.38;5094248;28;20629;-75
2022/08/29 05:29:52;;;;;;;20.00;11.13;;;;;;;-141.28;100.00;50714.94;5089902;28;20271;-74
2022/08/29 05:32:20;;;;;;;19.30;10.27;;;;;;;-141.28;100.00;50695.31;5089977;28;20621;-74
2022/08/29 05:34:49;;;;;;;19.57;10.60;;;;;;;-141.28;100.00;50705.13;5082461;28;20199;-76
2022/08/29 05:37:19;;;;;;;20.13;10.43;;;;;;;-141.28;100.00;50683.53;5094602;28;20219;-75
2022/08/29 05:39:46;;;;;;;29.87;11.70;;;;;;;-141.28;100.00;50711.00;5092981;28;20203;-76
2022/08/29 05:42:16;;;;;;;34.57;12.73;;;;;;;-141.28;100.00;50709.06;5091211;28;20196;-75
2022/08/29 05:44:46;;;;;;;49.40;13.70;;;;;;;-141.28;100.00;50648.19;5083438;28;20199;-74
2022/08/29 05:47:15;;;;;;;55.20;14.07;;;;;;;-141.28;100.00;50679.59;5103653;28;20678;-74
2022/08/29 05:49:44;;;;;;;28.63;12.57;;;;;;;-141.28;100.00;50665.88;5084782;28;20203;-76
2022/08/29 05:52:13;;;;;;;26.77;14.30;;;;;;;-141.28;100.00;50673.72;5094918;28;20599;-77
2022/08/29 05:54:43;;;;;;;22.60;12.77;;;;;;;-141.28;100.00;50714.94;5080418;28;20200;-74
2022/08/29 05:57:13;;;;;;;24.70;12.33;;;;;;;-141.28;100.00;50671.75;5109357;28;20286;-76
2022/08/29 05:59:41;;;;;;;21.23;11.80;;;;;;;-141.28;100.00;50687.47;5094811;28;20600;-77
2022/08/29 06:02:11;;;;;;;22.83;12.60;;;;;;;-141.28;100.00;50648.19;5086415;28;20200;-78
2022/08/29 06:04:40;;;;;;;24.70;11.83;;;;;;;-141.28;100.00;50656.06;5054255;28;20615;-75
2022/08/29 06:07:10;;;;;;;27.97;12.40;;;;;;;-141.28;100.00;50703.16;5060587;28;20641;-76
2022/08/29 06:09:41;;;;;;;35.13;13.30;;;;;;;-141.28;100.00;50663.91;5083145;28;20206;-74
2022/08/29 06:12:11;;;;;;;31.03;12.43;;;;;;;-141.28;100.00;50644.28;5113830;28;20233;-77
2022/08/29 06:14:40;;;;;;;33.30;12.37;;;;;;;-141.28;100.00;50630.53;5089299;28;20201;-75
2022/08/29 06:17:12;;;;;;;28.47;13.50;;;;;;;-141.28;100.00;50640.34;5077566;28;20197;-75
2022/08/29 06:19:40;;;;;;;26.13;12.40;;;;;;;-141.28;100.00;50632.50;5077209;28;20196;-75
2022/08/29 06:22:09;;;;;;;19.50;11.90;;;;;;;-141.28;100.00;50606.97;5088985;28;20273;-77
2022/08/29 06:24:38;;;;;;;21.70;11.67;;;;;;;-141.28;100.00;50642.31;5114379;28;20203;-76
2022/08/29 06:27:05;;;;;;;22.30;10.80;;;;;;;-141.28;100.00;50550.06;5092087;28;20353;-75
2022/08/29 06:29:34;;;;;;;22.63;11.97;;;;;;;-141.28;100.00;50463.69;5073318;28;20273;-78
2022/08/29 06:32:02;;;;;;;23.33;11.53;;;;;;;-141.28;100.00;50487.25;5075273;28;20295;-74
2022/08/29 06:34:32;;;;;;;25.57;12.23;;;;;;;-141.28;100.00;50416.56;5075955;28;20217;-77
2022/08/29 06:36:59;;;;;;;22.87;12.37;;;;;;;-141.28;100.00;50369.47;5085289;28;20225;-74
2022/08/29 06:39:26;;;;;;;21.73;12.50;;;;;;;-141.28;100.00;50255.63;5094373;28;20300;-75
2022/08/29 06:41:54;;;;;;;19.57;12.23;;;;;;;-141.28;100.00;50243.84;5090026;28;20654;-75
2022/08/29 06:44:22;;;;;;;19.33;12.03;;;;;;;-141.28;100.00;50232.06;5078112;28;20567;-75
2022/08/29 06:46:50;;;;;;;28.30;13.40;;;;;;;-141.28;100.00;50236.00;5078247;28;20198;-75
2022/08/29 06:49:23;;;;;;;28.00;13.60;;;;;;;-141.28;100.00;50232.06;5081754;28;20218;-74
2022/08/29 06:51:52;;;;;;;21.67;11.83;;;;;;;-141.28;100.00;50200.66;5082338;28;20230;-76
2022/08/29 06:54:22;;;;;;;30.97;11.83;;;;;;;-141.28;100.00;50137.88;5094994;28;20221;-76
2022/08/29 06:56:52;;;;;;;24.27;11.73;;;;;;;-141.28;100.00;50177.13;5090048;28;20210;-75
2022/08/29 06:59:20;;;;;;;22.37;13.07;;;;;;;-141.28;100.00;50059.34;5109974;28;20215;-76
2022/08/29 07:01:48;;;;;;;23.93;12.87;;;;;;;-141.28;100.00;50065.25;5107633;28;20195;-76
2022/08/29 07:04:16;;;;;;;18.83;12.50;;;;;;;-141.28;100.00;50100.56;5099882;28;20199;-76
2022/08/29 07:06:44;;;;;;;24.93;12.23;;;;;;;-141.28;100.00;50267.41;5101299;28;20196;-76
2022/08/29 07:09:13;;;;;;;17.87;11.47;;;;;;;-141.28;100.00;50349.84;5099839;28;20310;-75
2022/08/29 07:11:44;;;;;;;19.80;11.90;;;;;;;-141.28;100.00;50365.53;5102233;28;20236;-75
2022/08/29 07:14:12;;;;;;;28.80;11.83;;;;;;;-141.28;100.00;50302.72;5072243;28;20200;-74
2022/08/29 07:16:39;;;;;;;27.30;11.03;;;;;;;-141.28;100.00;50192.81;5101310;28;20281;-75
2022/08/29 07:19:08;;;;;;;23.67;11.40;;;;;;;-141.28;100.00;50192.81;5093400;28;20200;-75
2022/08/29 07:21:36;;;;;;;21.30;10.43;;;;;;;-141.28;100.00;50130.00;5077479;28;20200;-76
2022/08/29 07:24:03;;;;;;;19.03;11.03;;;;;;;-141.28;100.00;50186.94;5090817;28;20211;-75
2022/08/29 07:26:35;;;;;;;17.17;10.20;;;;;;;-141.28;100.00;50318.44;5097654;28;20206;-78
2022/08/29 07:29:07;;;;;;;15.10;9.37;;;;;;;-141.28;100.00;50273.28;5078097;28;20245;-75
2022/08/29 07:31:34;;;;;;;17.30;9.93;;;;;;;-141.28;100.00;50261.50;5078897;28;20232;-76
2022/08/29 07:34:04;;;;;;;18.60;10.00;;;;;;;-141.28;100.00;50110.38;5077022;28;20257;-75
2022/08/29 07:36:32;;;;;;;19.60;9.47;;;;;;;-141.28;100.00;49957.31;5103807;28;20198;-74
2022/08/29 07:39:00;;;;;;;15.80;8.60;;;;;;;-141.28;100.00;49764.97;5100593;28;20242;-75
2022/08/29 07:41:27;;;;;;;16.23;8.90;;;;;;;-141.28;100.00;49798.34;5102683;28;20750;-76
2022/08/29 07:43:58;;;;;;;16.27;9.03;;;;;;;-141.28;100.00;49737.50;5093216;28;20196;-76
2022/08/29 07:46:25;;;;;;;19.20;8.83;;;;;;;-141.28;100.00;49682.56;5094237;28;20270;-75
2022/08/29 07:48:53;;;;;;;20.20;9.40;;;;;;;-141.28;100.00;49682.56;5098784;28;20198;-77
2022/08/29 07:51:23;;;;;;;17.00;9.30;;;;;;;-141.28;100.00;49600.13;5100259;28;20249;-77
2022/08/29 07:53:52;;;;;;;22.70;9.87;;;;;;;-141.28;100.00;49458.84;5082935;28;20196;-77
2022/08/29 07:56:22;;;;;;;16.40;9.70;;;;;;;-141.28;100.00;49423.53;5093176;28;20195;-76
2022/08/29 07:58:50;;;;;;;15.80;9.57;;;;;;;-141.28;100.00;49399.97;5103712;28;20203;-76
2022/08/29 08:01:21;;;;;;;19.47;9.67;;;;;;;-141.28;100.00;49360.75;5093783;28;20197;-75
2022/08/29 08:03:49;;;;;;;21.07;9.20;;;;;;;-141.28;100.00;49345.03;5081839;28;20217;-77
2022/08/29 08:06:18;;;;;;;14.57;8.33;;;;;;;-141.28;100.00;49268.50;5078436;28;20534;-75
2022/08/29 08:08:48;;;;;;;18.53;8.67;;;;;;;-141.28;100.00;49135.09;5098269;28;20199;-76
2022/08/29 08:11:16;;;;;;;14.37;9.17;;;;;;;-141.28;100.00;49007.56;5088856;28;20228;-76
2022/08/29 08:13:45;;;;;;;14.00;8.00;;;;;;;-141.28;100.00;48950.66;5087338;28;20201;-76
2022/08/29 08:16:15;;;;;;;18.07;8.20;;;;;;;-141.28;100.00;48982.03;5076538;28;20683;-76
2022/08/29 08:18:44;;;;;;;20.77;9.00;;;;;;;-141.28;100.00;49007.56;5090204;28;20211;-76
2022/08/29 08:21:13;;;;;;;17.07;8.70;;;;;;;-141.28;100.00;48970.28;5095042;28;20219;-75
2022/08/29 08:23:41;;;;;;;16.87;8.40;;;;;;;-141.28;100.00;48964.38;5093888;28;20252;-77
2022/08/29 08:26:11;;;;;;;20.70;9.40;;;;;;;-141.28;100.00;48991.84;5080077;28;20203;-74
2022/08/29 08:28:39;;;;;;;18.53;8.63;;;;;;;-141.28;100.00;48925.16;5092943;28;20199;-74
2022/08/29 08:31:08;;;;;;;19.47;8.77;;;;;;;-141.28;100.00;48909.47;5092379;28;20225;-76
2022/08/29 08:33:38;;;;;;;12.87;7.90;;;;;;;-141.28;100.00;48874.13;5105187;28;20203;-77
2022/08/29 08:36:13;;;;;;;19.93;8.27;;;;;;;-141.28;100.00;48811.34;5093395;28;20259;-74
2022/08/29 08:38:41;;;;;;;19.80;8.00;;;;;;;-141.28;100.00;48827.06;5112799;28;20216;-78
2022/08/29 08:41:19;;;;;;;19.83;8.70;;;;;;;-141.28;100.00;48803.50;5077229;28;20721;-77
2022/08/29 08:43:53;;;;;;;15.73;8.37;;;;;;;-141.28;100.00;49229.28;5092431;28;20230;-76
2022/08/29 08:46:31;;;;;;;17.47;8.47;;;;;;;-141.28;100.00;48823.13;5092489;28;20198;-76
2022/08/29 08:49:02;;;;;;;17.50;8.50;;;;;;;-141.28;100.00;48764.28;5084679;28;20203;-77
2022/08/29 08:51:35;;;;;;;11.57;7.93;;;;;;;-141.28;100.00;48721.13;5085696;28;20219;-78
2022/08/29 08:54:08;;;;;;;13.93;8.53;;;;;;;-141.28;100.00;48744.66;5085909;28;20191;-75
2022/08/29 08:56:40;;;;;;;11.70;7.37;;;;;;;-141.28;100.00;48770.16;5086074;28;20208;-74
2022/08/29 08:59:15;;;;;;;13.93;7.73;;;;;;;-141.28;100.00;48766.22;5072503;28;20209;-75
2022/08/29 09:01:45;;;;;;;13.63;8.47;;;;;;;-141.28;100.00;49209.66;5072911;28;20207;-77
2022/08/29 09:04:51;;;;;;;15.53;8.30;;;;;;;-141.28;100.00;48791.75;5073079;28;20255;-77
2022/08/29 09:07:38;;;;;;;20.67;8.57;;;;;;;-141.28;100.00;48803.50;5079444;28;20205;-75
2022/08/29 09:10:18;;;;;;;15.07;8.30;;;;;;;-141.28;100.00;48776.03;5076545;28;20283;-76
2022/08/29 09:12:57;;;;;;;15.20;7.60;;;;;;;-141.28;100.00;48779.97;5072423;28;20722;-76
2022/08/29 09:15:29;;;;;;;19.57;8.17;;;;;;;-141.28;100.00;48776.03;5085310;28;20562;-76
2022/08/29 09:18:01;;;;;;;14.47;7.60;;;;;;;-141.28;100.00;48803.50;5088837;28;20658;-75
2022/08/29 09:20:31;;;;;;;14.20;8.13;;;;;;;-141.28;100.00;48776.03;5083880;28;20201;-75
2022/08/29 09:23:03;;;;;;;11.17;7.90;;;;;;;-141.28;100.00;48744.66;5071622;28;20199;-77
2022/08/29 09:25:35;;;;;;;12.87;7.60;;;;;;;-141.28;100.00;48693.66;5091178;28;20203;-76
2022/08/29 09:28:05;;;;;;;13.33;7.50;;;;;;;-141.28;100.00;48685.81;5110855;28;20187;-76
2022/08/29 09:30:35;;;;;;;17.67;7.87;;;;;;;-141.28;100.00;48689.72;5112225;28;20673;-75
2022/08/29 09:33:07;;;;;;;14.00;7.20;;;;;;;-141.28;100.00;48683.84;5075866;28;20696;-74
2022/08/29 09:35:38;;;;;;;17.67;8.10;;;;;;;-141.28;100.00;48658.34;5088641;28;20615;-76
2022/08/29 09:38:09;;;;;;;17.00;7.77;;;;;;;-141.28;100.00;48638.72;5086945;28;20225;-76
2022/08/29 09:40:51;;;;;;;15.80;7.63;;;;;;;-141.28;100.00;48662.25;5078840;28;20197;-76
2022/08/29 09:43:23;;;;;;;20.13;8.00;;;;;;;-141.28;100.00;48693.66;5075329;28;20198;-76
2022/08/29 09:46:16;;;;;;;12.80;8.00;;;;;;;-141.28;100.00;48679.91;5071711;28;20201;-74
2022/08/29 09:48:46;;;;;;;15.73;7.70;;;;;;;-141.28;100.00;48664.22;5075325;28;20206;-74
2022/08/29 09:51:33;;;;;;;11.07;8.07;;;;;;;-141.28;100.00;48662.25;5092888;28;20213;-75
2022/08/29 09:54:18;;;;;;;16.87;7.67;;;;;;;-141.28;100.00;48646.56;5085893;28;20550;-76
2022/08/29 09:56:59;;;;;;;20.37;8.07;;;;;;;-141.28;100.00;48650.50;5111077;28;20573;-75
2022/08/29 09:59:33;;;;;;;15.60;8.33;;;;;;;-141.28;100.00;48630.88;5099026;28;20210;-75
2022/08/29 10:02:20;;;;;;;18.90;8.93;;;;;;;-141.28;100.00;48672.06;5088823;28;20616;-76
2022/08/29 10:04:50;;;;;;;17.03;8.53;;;;;;;-141.28;100.00;48670.09;5104457;28;20209;-75
2022/08/29 10:07:23;;;;;;;15.93;8.70;;;;;;;-141.28;100.00;48677.94;5097264;28;20638;-76
2022/08/29 10:09:59;;;;;;;19.13;8.20;;;;;;;-141.28;100.00;48683.84;5091459;28;20569;-76
2022/08/29 10:12:33;;;;;;;16.43;8.00;;;;;;;-141.28;100.00;48638.72;5091348;28;20224;-77
2022/08/29 10:15:04;;;;;;;15.50;8.63;;;;;;;-141.28;100.00;48709.34;5088847;28;20591;-75
2022/08/29 10:20:27;;;;;;;17.40;8.20;;;;;;;-141.28;100.00;48723.06;5089638;28;20568;-75
2022/08/29 10:23:00;;;;;;;14.83;8.10;;;;;;;-141.28;100.00;48772.13;5102196;28;20233;-75
2022/08/29 10:25:34;;;;;;;13.60;8.47;;;;;;;-141.28;100.00;48803.50;5104220;28;20200;-76
2022/08/29 10:28:08;;;;;;;17.50;9.43;;;;;;;-141.28;100.00;48801.56;5082928;28;20204;-77
2022/08/29 10:30:44;;;;;;;14.10;8.60;;;;;;;-141.28;100.00;49201.81;5075944;28;20277;-77
2022/08/29 10:33:24;;;;;;;19.13;8.30;;;;;;;-141.28;100.00;48934.97;5075882;28;20238;-76
2022/08/29 10:35:57;;;;;;;17.43;8.67;;;;;;;-141.28;100.00;48999.72;5057493;28;20237;-76
2022/08/29 10:38:40;;;;;;;12.20;7.77;;;;;;;-141.28;100.00;48997.75;5075788;28;20224;-75
2022/08/29 10:41:24;;;;;;;11.23;8.20;;;;;;;-141.28;100.00;49023.25;5075948;28;20202;-75
2022/08/29 10:44:01;;;;;;;14.43;8.80;;;;;;;-141.28;100.00;49086.03;5075253;28;20575;-76
2022/08/29 10:46:45;;;;;;;16.60;8.53;;;;;;;-141.28;100.00;49101.72;5079596;28;20192;-77
2022/08/29 10:49:24;;;;;;;17.53;7.90;;;;;;;-141.28;100.00;49125.28;5082435;28;20204;-76
2022/08/29 10:51:59;;;;;;;15.70;8.37;;;;;;;-141.28;100.00;49156.66;5087564;28;20224;-76
2022/08/29 10:54:36;;;;;;;15.30;7.97;;;;;;;-141.28;100.00;49164.53;5076974;28;20591;-77
2022/08/29 10:57:07;;;;;;;13.23;7.90;;;;;;;-141.28;100.00;49211.59;5075945;28;20524;-77
2022/08/29 10:59:42;;;;;;;12.97;7.73;;;;;;;-141.28;100.00;49233.19;5078016;28;20258;-77
2022/08/29 11:02:19;;;;;;;14.37;8.20;;;;;;;-141.28;100.00;49229.28;5075418;28;20672;-76
2022/08/29 11:04:53;;;;;;;21.27;8.17;;;;;;;-141.28;100.00;49258.69;5086761;28;20205;-77
2022/08/29 11:07:27;;;;;;;22.73;8.63;;;;;;;-141.28;100.00;49270.47;5082144;28;20557;-76
2022/08/29 11:09:58;;;;;;;15.37;8.40;;;;;;;-141.28;100.00;49264.59;5092602;28;20199;-75
2022/08/29 11:12:43;;;;;;;12.83;7.73;;;;;;;-141.28;100.00;49266.56;5074048;28;20227;-77
2022/08/29 11:15:20;;;;;;;17.60;7.80;;;;;;;-141.28;100.00;49270.47;5078359;28;20292;-78
2022/08/29 11:17:56;;;;;;;18.47;8.33;;;;;;;-141.28;100.00;49284.22;5105896;28;20719;-77
2022/08/29 11:20:28;;;;;;;23.13;8.37;;;;;;;-141.28;100.00;49294.03;5114609;28;20194;-74